sensor_id;sensor_type;location;lat;lon;timestamp;P1;durP1;ratioP1;P2;durP2;ratioP2
55069;SDS011;40967;52.070;8.596;2023-01-16T00:02:01;1.20;;;0.40;;
55069;SDS011;40967;52.070;8.596;2023-01-16T00:04:27;2.55;;;0.60;;
55069;SDS011;40967;52.070;8.596;2023-01-16T00:06:53;2.33;;;0.60;;
55069;SDS011;40967;52.070;8.596;2023-01-16T00:09:19;3.37;;;0.80;;
55069;SDS011;40967;52.070;8.596;2023-01-16T00:11:45;3.57;;;0.70;;
55069;SDS011;40967;52.070;8.596;2023-01-16T00:14:11;4.57;;;0.90;;
55069;SDS011;40967;52.070;8.596;2023-01-16T00:16:37;3.60;;;0.80;;
55069;SDS011;40967;52.070;8.596;2023-01-16T00:19:03;3.58;;;0.70;;
55069;SDS011;40967;52.070;8.596;2023-01-16T00:21:28;2.37;;;0.50;;
55069;SDS011;40967;52.070;8.596;2023-01-16T00:23:54;3.43;;;0.60;;
55069;SDS011;40967;52.070;8.596;2023-01-16T00:26:22;2.70;;;0.60;;
55069;SDS011;40967;52.070;8.596;2023-01-16T00:28:48;1.77;;;0.60;;
55069;SDS011;40967;52.070;8.596;2023-01-16T00:31:13;2.25;;;0.50;;
55069;SDS011;40967;52.070;8.596;2023-01-16T00:33:39;1.67;;;0.53;;
55069;SDS011;40967;52.070;8.596;2023-01-16T00:36:04;1.83;;;0.40;;
55069;SDS011;40967;52.070;8.596;2023-01-16T00:38:30;1.40;;;0.30;;
55069;SDS011;40967;52.070;8.596;2023-01-16T00:40:57;0.85;;;0.32;;
55069;SDS011;40967;52.070;8.596;2023-01-16T00:43:22;1.57;;;0.40;;
55069;SDS011;40967;52.070;8.596;2023-01-16T00:45:48;2.25;;;0.50;;
55069;SDS011;40967;52.070;8.596;2023-01-16T00:48:14;4.63;;;0.93;;
55069;SDS011;40967;52.070;8.596;2023-01-16T00:50:39;1.70;;;0.50;;
55069;SDS011;40967;52.070;8.596;2023-01-16T00:53:04;1.90;;;0.47;;
55069;SDS011;40967;52.070;8.596;2023-01-16T00:55:32;2.47;;;0.50;;
55069;SDS011;40967;52.070;8.596;2023-01-16T00:57:58;2.40;;;0.38;;
55069;SDS011;40967;52.070;8.596;2023-01-16T01:00:24;1.17;;;0.40;;
55069;SDS011;40967;52.070;8.596;2023-01-16T01:02:50;1.20;;;0.40;;
55069;SDS011;40967;52.070;8.596;2023-01-16T01:05:16;1.77;;;0.40;;
55069;SDS011;40967;52.070;8.596;2023-01-16T01:07:42;1.80;;;0.40;;
55069;SDS011;40967;52.070;8.596;2023-01-16T01:10:07;0.50;;;0.20;;
55069;SDS011;40967;52.070;8.596;2023-01-16T01:12:33;1.63;;;0.40;;
55069;SDS011;40967;52.070;8.596;2023-01-16T01:14:58;0.63;;;0.20;;
55069;SDS011;40967;52.070;8.596;2023-01-16T01:17:24;0.82;;;0.20;;
55069;SDS011;40967;52.070;8.596;2023-01-16T01:19:49;1.20;;;0.20;;
55069;SDS011;40967;52.070;8.596;2023-01-16T01:22:14;1.50;;;0.40;;
55069;SDS011;40967;52.070;8.596;2023-01-16T01:24:46;0.80;;;0.20;;
55069;SDS011;40967;52.070;8.596;2023-01-16T01:27:12;1.17;;;0.30;;
55069;SDS011;40967;52.070;8.596;2023-01-16T01:29:38;2.93;;;0.50;;
55069;SDS011;40967;52.070;8.596;2023-01-16T01:32:03;1.87;;;0.57;;
55069;SDS011;40967;52.070;8.596;2023-01-16T01:34:30;2.60;;;0.50;;
55069;SDS011;40967;52.070;8.596;2023-01-16T01:36:58;1.80;;;0.50;;
55069;SDS011;40967;52.070;8.596;2023-01-16T01:39:23;3.03;;;0.50;;
55069;SDS011;40967;52.070;8.596;2023-01-16T01:41:49;1.13;;;0.40;;
55069;SDS011;40967;52.070;8.596;2023-01-16T01:47:21;3.92;;;0.80;;
55069;SDS011;40967;52.070;8.596;2023-01-16T01:49:51;1.33;;;0.40;;
55069;SDS011;40967;52.070;8.596;2023-01-16T01:52:18;0.93;;;0.43;;
55069;SDS011;40967;52.070;8.596;2023-01-16T01:54:46;2.50;;;0.50;;
55069;SDS011;40967;52.070;8.596;2023-01-16T01:57:25;0.77;;;0.40;;
55069;SDS011;40967;52.070;8.596;2023-01-16T01:59:55;1.50;;;0.43;;
55069;SDS011;40967;52.070;8.596;2023-01-16T02:02:33;1.70;;;0.40;;
55069;SDS011;40967;52.070;8.596;2023-01-16T02:05:05;1.80;;;0.40;;
55069;SDS011;40967;52.070;8.596;2023-01-16T02:07:33;1.90;;;0.40;;
55069;SDS011;40967;52.070;8.596;2023-01-16T02:10:01;1.80;;;0.40;;
55069;SDS011;40967;52.070;8.596;2023-01-16T02:12:38;2.43;;;0.40;;
55069;SDS011;40967;52.070;8.596;2023-01-16T02:15:03;1.90;;;0.30;;
55069;SDS011;40967;52.070;8.596;2023-01-16T02:17:29;0.70;;;0.25;;
55069;SDS011;40967;52.070;8.596;2023-01-16T02:34:46;4.38;;;0.60;;
55069;SDS011;40967;52.070;8.596;2023-01-16T02:37:33;5.85;;;0.70;;
55069;SDS011;40967;52.070;8.596;2023-01-16T02:40:27;2.92;;;0.60;;
55069;SDS011;40967;52.070;8.596;2023-01-16T02:43:08;1.10;;;0.30;;
55069;SDS011;40967;52.070;8.596;2023-01-16T02:48:32;2.13;;;0.47;;
55069;SDS011;40967;52.070;8.596;2023-01-16T02:56:48;3.00;;;0.50;;
55069;SDS011;40967;52.070;8.596;2023-01-16T02:59:19;2.30;;;0.80;;
55069;SDS011;40967;52.070;8.596;2023-01-16T03:01:48;2.08;;;0.50;;
55069;SDS011;40967;52.070;8.596;2023-01-16T03:15:27;1.15;;;0.30;;
55069;SDS011;40967;52.070;8.596;2023-01-16T03:20:52;0.57;;;0.20;;
55069;SDS011;40967;52.070;8.596;2023-01-16T03:26:18;0.35;;;0.20;;
55069;SDS011;40967;52.070;8.596;2023-01-16T03:31:41;0.50;;;0.20;;
55069;SDS011;40967;52.070;8.596;2023-01-16T03:34:20;0.90;;;0.20;;
55069;SDS011;40967;52.070;8.596;2023-01-16T03:39:56;1.00;;;0.25;;
55069;SDS011;40967;52.070;8.596;2023-01-16T03:44:59;0.65;;;0.20;;
55069;SDS011;40967;52.070;8.596;2023-01-16T03:47:35;0.20;;;0.10;;
55069;SDS011;40967;52.070;8.596;2023-01-16T03:50:07;0.77;;;0.30;;
55069;SDS011;40967;52.070;8.596;2023-01-16T03:52:40;0.50;;;0.20;;
55069;SDS011;40967;52.070;8.596;2023-01-16T03:57:44;0.45;;;0.20;;
55069;SDS011;40967;52.070;8.596;2023-01-16T04:00:22;0.73;;;0.20;;
55069;SDS011;40967;52.070;8.596;2023-01-16T04:02:58;0.30;;;0.20;;
55069;SDS011;40967;52.070;8.596;2023-01-16T04:05:35;1.30;;;0.60;;
55069;SDS011;40967;52.070;8.596;2023-01-16T04:08:13;1.10;;;0.30;;
55069;SDS011;40967;52.070;8.596;2023-01-16T04:10:43;1.40;;;0.40;;
55069;SDS011;40967;52.070;8.596;2023-01-16T04:13:16;1.55;;;0.35;;
55069;SDS011;40967;52.070;8.596;2023-01-16T04:15:47;1.38;;;0.30;;
55069;SDS011;40967;52.070;8.596;2023-01-16T04:18:15;0.68;;;0.40;;
55069;SDS011;40967;52.070;8.596;2023-01-16T04:20:43;0.98;;;0.30;;
55069;SDS011;40967;52.070;8.596;2023-01-16T04:23:12;1.63;;;0.40;;
55069;SDS011;40967;52.070;8.596;2023-01-16T04:25:38;1.27;;;0.30;;
55069;SDS011;40967;52.070;8.596;2023-01-16T04:28:03;0.68;;;0.30;;
55069;SDS011;40967;52.070;8.596;2023-01-16T04:30:29;1.30;;;0.40;;
55069;SDS011;40967;52.070;8.596;2023-01-16T04:32:54;0.77;;;0.40;;
55069;SDS011;40967;52.070;8.596;2023-01-16T04:35:20;0.90;;;0.40;;
55069;SDS011;40967;52.070;8.596;2023-01-16T04:37:46;1.15;;;0.35;;
55069;SDS011;40967;52.070;8.596;2023-01-16T04:40:11;2.40;;;0.30;;
55069;SDS011;40967;52.070;8.596;2023-01-16T04:42:37;0.93;;;0.30;;
55069;SDS011;40967;52.070;8.596;2023-01-16T04:45:02;1.50;;;0.23;;
55069;SDS011;40967;52.070;8.596;2023-01-16T04:47:29;0.80;;;0.40;;
55069;SDS011;40967;52.070;8.596;2023-01-16T04:49:54;0.60;;;0.30;;
55069;SDS011;40967;52.070;8.596;2023-01-16T04:52:19;1.00;;;0.40;;
55069;SDS011;40967;52.070;8.596;2023-01-16T04:54:45;0.70;;;0.20;;
55069;SDS011;40967;52.070;8.596;2023-01-16T04:57:10;0.37;;;0.20;;
55069;SDS011;40967;52.070;8.596;2023-01-16T04:59:36;0.70;;;0.30;;
55069;SDS011;40967;52.070;8.596;2023-01-16T05:02:01;0.80;;;0.30;;
55069;SDS011;40967;52.070;8.596;2023-01-16T05:04:26;0.40;;;0.20;;
55069;SDS011;40967;52.070;8.596;2023-01-16T05:06:52;1.40;;;0.40;;
55069;SDS011;40967;52.070;8.596;2023-01-16T05:09:17;0.40;;;0.10;;
55069;SDS011;40967;52.070;8.596;2023-01-16T05:11:42;1.60;;;0.40;;
55069;SDS011;40967;52.070;8.596;2023-01-16T05:14:08;0.67;;;0.30;;
55069;SDS011;40967;52.070;8.596;2023-01-16T05:16:35;1.02;;;0.30;;
55069;SDS011;40967;52.070;8.596;2023-01-16T05:19:01;1.67;;;0.40;;
55069;SDS011;40967;52.070;8.596;2023-01-16T05:21:27;2.00;;;0.40;;
55069;SDS011;40967;52.070;8.596;2023-01-16T05:23:53;2.97;;;0.60;;
55069;SDS011;40967;52.070;8.596;2023-01-16T05:26:18;1.67;;;0.50;;
55069;SDS011;40967;52.070;8.596;2023-01-16T05:28:44;0.83;;;0.40;;
55069;SDS011;40967;52.070;8.596;2023-01-16T05:31:09;2.30;;;0.50;;
55069;SDS011;40967;52.070;8.596;2023-01-16T05:33:35;2.20;;;0.50;;
55069;SDS011;40967;52.070;8.596;2023-01-16T05:36:00;2.27;;;0.63;;
55069;SDS011;40967;52.070;8.596;2023-01-16T05:38:26;1.70;;;0.65;;
55069;SDS011;40967;52.070;8.596;2023-01-16T05:40:51;2.40;;;0.47;;
55069;SDS011;40967;52.070;8.596;2023-01-16T05:43:17;2.38;;;0.60;;
55069;SDS011;40967;52.070;8.596;2023-01-16T05:45:45;1.20;;;0.40;;
55069;SDS011;40967;52.070;8.596;2023-01-16T05:48:10;1.30;;;0.30;;
55069;SDS011;40967;52.070;8.596;2023-01-16T05:50:35;1.77;;;0.40;;
55069;SDS011;40967;52.070;8.596;2023-01-16T05:53:01;1.00;;;0.50;;
55069;SDS011;40967;52.070;8.596;2023-01-16T05:55:26;1.00;;;0.30;;
55069;SDS011;40967;52.070;8.596;2023-01-16T05:57:52;1.07;;;0.40;;
55069;SDS011;40967;52.070;8.596;2023-01-16T06:00:17;0.63;;;0.30;;
55069;SDS011;40967;52.070;8.596;2023-01-16T06:02:43;0.80;;;0.30;;
55069;SDS011;40967;52.070;8.596;2023-01-16T06:05:11;0.80;;;0.30;;
55069;SDS011;40967;52.070;8.596;2023-01-16T06:07:36;1.60;;;0.40;;
55069;SDS011;40967;52.070;8.596;2023-01-16T06:10:02;0.60;;;0.30;;
55069;SDS011;40967;52.070;8.596;2023-01-16T06:12:31;1.00;;;0.47;;
55069;SDS011;40967;52.070;8.596;2023-01-16T06:14:57;2.80;;;0.50;;
55069;SDS011;40967;52.070;8.596;2023-01-16T06:17:22;3.13;;;0.55;;
55069;SDS011;40967;52.070;8.596;2023-01-16T06:19:48;1.30;;;0.37;;
55069;SDS011;40967;52.070;8.596;2023-01-16T06:22:13;2.83;;;0.30;;
55069;SDS011;40967;52.070;8.596;2023-01-16T06:24:39;1.50;;;0.40;;
55069;SDS011;40967;52.070;8.596;2023-01-16T06:27:04;2.00;;;0.40;;
55069;SDS011;40967;52.070;8.596;2023-01-16T06:29:30;1.00;;;0.50;;
55069;SDS011;40967;52.070;8.596;2023-01-16T06:31:55;0.77;;;0.40;;
55069;SDS011;40967;52.070;8.596;2023-01-16T06:34:20;0.30;;;0.25;;
55069;SDS011;40967;52.070;8.596;2023-01-16T06:36:46;1.67;;;0.53;;
55069;SDS011;40967;52.070;8.596;2023-01-16T06:39:13;1.73;;;0.47;;
55069;SDS011;40967;52.070;8.596;2023-01-16T06:41:39;0.80;;;0.30;;
55069;SDS011;40967;52.070;8.596;2023-01-16T06:44:05;0.60;;;0.30;;
55069;SDS011;40967;52.070;8.596;2023-01-16T06:46:30;1.10;;;0.40;;
55069;SDS011;40967;52.070;8.596;2023-01-16T06:48:56;1.00;;;0.40;;
55069;SDS011;40967;52.070;8.596;2023-01-16T06:51:21;1.70;;;0.50;;
55069;SDS011;40967;52.070;8.596;2023-01-16T06:53:46;0.60;;;0.30;;
55069;SDS011;40967;52.070;8.596;2023-01-16T06:56:12;1.00;;;0.37;;
55069;SDS011;40967;52.070;8.596;2023-01-16T06:58:37;1.00;;;0.30;;
55069;SDS011;40967;52.070;8.596;2023-01-16T07:01:03;1.33;;;0.40;;
55069;SDS011;40967;52.070;8.596;2023-01-16T07:03:28;1.23;;;0.30;;
55069;SDS011;40967;52.070;8.596;2023-01-16T07:05:54;1.00;;;0.30;;
55069;SDS011;40967;52.070;8.596;2023-01-16T07:08:19;0.90;;;0.40;;
55069;SDS011;40967;52.070;8.596;2023-01-16T07:10:45;1.15;;;0.30;;
55069;SDS011;40967;52.070;8.596;2023-01-16T07:13:11;0.80;;;0.30;;
55069;SDS011;40967;52.070;8.596;2023-01-16T07:15:36;0.87;;;0.37;;
55069;SDS011;40967;52.070;8.596;2023-01-16T07:18:21;0.50;;;0.20;;
55069;SDS011;40967;52.070;8.596;2023-01-16T07:21:07;0.63;;;0.28;;
55069;SDS011;40967;52.070;8.596;2023-01-16T07:24:00;0.90;;;0.40;;
55069;SDS011;40967;52.070;8.596;2023-01-16T07:26:28;1.30;;;0.40;;
55069;SDS011;40967;52.070;8.596;2023-01-16T07:28:54;0.80;;;0.30;;
55069;SDS011;40967;52.070;8.596;2023-01-16T07:31:21;0.50;;;0.30;;
55069;SDS011;40967;52.070;8.596;2023-01-16T07:33:47;0.70;;;0.40;;
55069;SDS011;40967;52.070;8.596;2023-01-16T07:36:13;1.10;;;0.40;;
55069;SDS011;40967;52.070;8.596;2023-01-16T07:38:38;0.80;;;0.40;;
55069;SDS011;40967;52.070;8.596;2023-01-16T07:41:04;1.40;;;0.40;;
55069;SDS011;40967;52.070;8.596;2023-01-16T07:43:29;0.80;;;0.30;;
55069;SDS011;40967;52.070;8.596;2023-01-16T07:45:54;1.70;;;0.50;;
55069;SDS011;40967;52.070;8.596;2023-01-16T07:48:20;0.50;;;0.30;;
55069;SDS011;40967;52.070;8.596;2023-01-16T07:50:50;0.63;;;0.30;;
55069;SDS011;40967;52.070;8.596;2023-01-16T07:53:17;1.02;;;0.50;;
55069;SDS011;40967;52.070;8.596;2023-01-16T07:55:46;1.40;;;0.50;;
55069;SDS011;40967;52.070;8.596;2023-01-16T07:58:16;1.08;;;0.50;;
55069;SDS011;40967;52.070;8.596;2023-01-16T08:00:42;2.30;;;0.57;;
55069;SDS011;40967;52.070;8.596;2023-01-16T08:03:08;1.33;;;0.50;;
55069;SDS011;40967;52.070;8.596;2023-01-16T08:05:33;1.37;;;0.40;;
55069;SDS011;40967;52.070;8.596;2023-01-16T08:07:58;0.65;;;0.40;;
55069;SDS011;40967;52.070;8.596;2023-01-16T08:10:24;0.60;;;0.30;;
55069;SDS011;40967;52.070;8.596;2023-01-16T08:12:49;0.87;;;0.40;;
55069;SDS011;40967;52.070;8.596;2023-01-16T08:15:15;1.93;;;0.70;;
55069;SDS011;40967;52.070;8.596;2023-01-16T08:17:40;2.20;;;0.70;;
55069;SDS011;40967;52.070;8.596;2023-01-16T08:20:06;2.33;;;0.73;;
55069;SDS011;40967;52.070;8.596;2023-01-16T08:22:32;3.10;;;0.73;;
55069;SDS011;40967;52.070;8.596;2023-01-16T08:24:57;1.40;;;0.47;;
55069;SDS011;40967;52.070;8.596;2023-01-16T08:27:23;2.60;;;0.93;;
55069;SDS011;40967;52.070;8.596;2023-01-16T08:29:48;3.63;;;0.90;;
55069;SDS011;40967;52.070;8.596;2023-01-16T08:32:13;4.37;;;1.10;;
55069;SDS011;40967;52.070;8.596;2023-01-16T08:34:39;2.83;;;0.90;;
55069;SDS011;40967;52.070;8.596;2023-01-16T08:37:05;3.57;;;0.80;;
55069;SDS011;40967;52.070;8.596;2023-01-16T08:39:32;2.75;;;0.90;;
55069;SDS011;40967;52.070;8.596;2023-01-16T08:41:57;2.40;;;0.70;;
55069;SDS011;40967;52.070;8.596;2023-01-16T08:44:41;1.92;;;0.80;;
55069;SDS011;40967;52.070;8.596;2023-01-16T08:47:25;3.40;;;1.00;;
55069;SDS011;40967;52.070;8.596;2023-01-16T08:50:10;3.45;;;1.00;;
55069;SDS011;40967;52.070;8.596;2023-01-16T08:52:56;2.05;;;0.60;;
55069;SDS011;40967;52.070;8.596;2023-01-16T08:55:22;2.60;;;0.70;;
55069;SDS011;40967;52.070;8.596;2023-01-16T08:57:47;2.70;;;0.80;;
55069;SDS011;40967;52.070;8.596;2023-01-16T09:00:13;2.27;;;0.70;;
55069;SDS011;40967;52.070;8.596;2023-01-16T09:02:38;2.00;;;0.75;;
55069;SDS011;40967;52.070;8.596;2023-01-16T09:05:04;4.03;;;0.83;;
55069;SDS011;40967;52.070;8.596;2023-01-16T09:07:30;1.98;;;0.77;;
55069;SDS011;40967;52.070;8.596;2023-01-16T09:09:55;3.10;;;0.80;;
55069;SDS011;40967;52.070;8.596;2023-01-16T09:12:21;2.45;;;0.70;;
55069;SDS011;40967;52.070;8.596;2023-01-16T09:15:06;3.28;;;0.80;;
55069;SDS011;40967;52.070;8.596;2023-01-16T09:17:32;3.90;;;1.00;;
55069;SDS011;40967;52.070;8.596;2023-01-16T09:19:57;2.53;;;0.80;;
55069;SDS011;40967;52.070;8.596;2023-01-16T09:22:26;5.40;;;0.93;;
55069;SDS011;40967;52.070;8.596;2023-01-16T09:24:52;2.83;;;0.82;;
55069;SDS011;40967;52.070;8.596;2023-01-16T09:27:17;3.73;;;1.03;;
55069;SDS011;40967;52.070;8.596;2023-01-16T09:29:44;4.15;;;0.88;;
55069;SDS011;40967;52.070;8.596;2023-01-16T09:32:10;2.97;;;1.05;;
55069;SDS011;40967;52.070;8.596;2023-01-16T09:34:36;3.50;;;0.85;;
55069;SDS011;40967;52.070;8.596;2023-01-16T09:37:03;3.50;;;0.80;;
55069;SDS011;40967;52.070;8.596;2023-01-16T09:39:28;3.03;;;0.98;;
55069;SDS011;40967;52.070;8.596;2023-01-16T09:44:54;2.53;;;0.80;;
55069;SDS011;40967;52.070;8.596;2023-01-16T09:47:25;3.10;;;0.85;;
55069;SDS011;40967;52.070;8.596;2023-01-16T09:49:53;3.75;;;0.80;;
55069;SDS011;40967;52.070;8.596;2023-01-16T09:52:24;2.70;;;0.88;;
55069;SDS011;40967;52.070;8.596;2023-01-16T09:55:32;2.73;;;0.80;;
55069;SDS011;40967;52.070;8.596;2023-01-16T09:58:20;2.90;;;0.80;;
55069;SDS011;40967;52.070;8.596;2023-01-16T10:03:33;2.60;;;0.70;;
55069;SDS011;40967;52.070;8.596;2023-01-16T10:08:52;3.95;;;0.88;;
55069;SDS011;40967;52.070;8.596;2023-01-16T10:12:14;3.42;;;0.88;;
55069;SDS011;40967;52.070;8.596;2023-01-16T10:27:49;3.25;;;0.82;;
55069;SDS011;40967;52.070;8.596;2023-01-16T10:30:19;2.08;;;0.60;;
55069;SDS011;40967;52.070;8.596;2023-01-16T10:32:58;4.75;;;0.85;;
55069;SDS011;40967;52.070;8.596;2023-01-16T10:35:31;2.88;;;0.80;;
55069;SDS011;40967;52.070;8.596;2023-01-16T10:38:43;4.15;;;0.98;;
55069;SDS011;40967;52.070;8.596;2023-01-16T10:43:56;2.78;;;0.75;;
55069;SDS011;40967;52.070;8.596;2023-01-16T10:46:40;3.05;;;0.82;;
55069;SDS011;40967;52.070;8.596;2023-01-16T10:49:26;3.13;;;0.75;;
55069;SDS011;40967;52.070;8.596;2023-01-16T10:51:51;2.90;;;0.80;;
55069;SDS011;40967;52.070;8.596;2023-01-16T10:54:16;3.17;;;0.87;;
55069;SDS011;40967;52.070;8.596;2023-01-16T10:56:42;1.90;;;0.80;;
55069;SDS011;40967;52.070;8.596;2023-01-16T10:59:11;2.70;;;0.80;;
55069;SDS011;40967;52.070;8.596;2023-01-16T11:01:38;2.17;;;0.65;;
55069;SDS011;40967;52.070;8.596;2023-01-16T11:04:06;3.00;;;0.70;;
55069;SDS011;40967;52.070;8.596;2023-01-16T11:06:35;3.00;;;0.80;;
55069;SDS011;40967;52.070;8.596;2023-01-16T11:11:33;2.40;;;0.75;;
55069;SDS011;40967;52.070;8.596;2023-01-16T11:14:23;2.33;;;0.70;;
55069;SDS011;40967;52.070;8.596;2023-01-16T11:17:29;2.50;;;0.50;;
55069;SDS011;40967;52.070;8.596;2023-01-16T11:20:19;3.40;;;0.80;;
55069;SDS011;40967;52.070;8.596;2023-01-16T11:22:54;3.80;;;0.70;;
55069;SDS011;40967;52.070;8.596;2023-01-16T11:25:24;2.28;;;0.68;;
55069;SDS011;40967;52.070;8.596;2023-01-16T11:27:52;3.67;;;0.57;;
55069;SDS011;40967;52.070;8.596;2023-01-16T11:30:26;2.33;;;0.70;;
55069;SDS011;40967;52.070;8.596;2023-01-16T11:32:53;2.67;;;0.60;;
55069;SDS011;40967;52.070;8.596;2023-01-16T11:35:23;4.50;;;0.60;;
55069;SDS011;40967;52.070;8.596;2023-01-16T11:37:56;3.33;;;0.60;;
55069;SDS011;40967;52.070;8.596;2023-01-16T11:40:22;3.00;;;0.70;;
55069;SDS011;40967;52.070;8.596;2023-01-16T11:42:51;1.53;;;0.53;;
55069;SDS011;40967;52.070;8.596;2023-01-16T11:45:39;2.60;;;0.70;;
55069;SDS011;40967;52.070;8.596;2023-01-16T11:48:25;3.27;;;0.77;;
55069;SDS011;40967;52.070;8.596;2023-01-16T11:50:55;2.10;;;0.63;;
55069;SDS011;40967;52.070;8.596;2023-01-16T11:53:22;2.70;;;0.52;;
55069;SDS011;40967;52.070;8.596;2023-01-16T11:56:14;1.60;;;0.50;;
55069;SDS011;40967;52.070;8.596;2023-01-16T12:04:29;3.40;;;0.60;;
55069;SDS011;40967;52.070;8.596;2023-01-16T12:09:56;2.05;;;0.50;;
55069;SDS011;40967;52.070;8.596;2023-01-16T12:15:21;1.67;;;0.40;;
55069;SDS011;40967;52.070;8.596;2023-01-16T12:20:59;3.23;;;0.60;;
55069;SDS011;40967;52.070;8.596;2023-01-16T12:26:24;1.33;;;0.50;;
55069;SDS011;40967;52.070;8.596;2023-01-16T12:31:44;1.65;;;0.40;;
55069;SDS011;40967;52.070;8.596;2023-01-16T12:34:33;1.77;;;0.40;;
55069;SDS011;40967;52.070;8.596;2023-01-16T12:39:46;0.70;;;0.40;;
55069;SDS011;40967;52.070;8.596;2023-01-16T12:45:28;1.30;;;0.50;;
55069;SDS011;40967;52.070;8.596;2023-01-16T12:48:12;3.00;;;0.60;;
55069;SDS011;40967;52.070;8.596;2023-01-16T13:00:13;2.08;;;0.70;;
55069;SDS011;40967;52.070;8.596;2023-01-16T13:02:52;2.78;;;0.82;;
55069;SDS011;40967;52.070;8.596;2023-01-16T13:05:25;1.83;;;0.70;;
55069;SDS011;40967;52.070;8.596;2023-01-16T13:07:59;1.17;;;0.45;;
55069;SDS011;40967;52.070;8.596;2023-01-16T13:10:30;2.78;;;0.70;;
55069;SDS011;40967;52.070;8.596;2023-01-16T13:13:19;2.33;;;0.50;;
55069;SDS011;40967;52.070;8.596;2023-01-16T13:18:45;1.98;;;0.60;;
55069;SDS011;40967;52.070;8.596;2023-01-16T13:21:17;2.60;;;0.70;;
55069;SDS011;40967;52.070;8.596;2023-01-16T13:23:50;2.13;;;0.50;;
55069;SDS011;40967;52.070;8.596;2023-01-16T13:26:26;2.00;;;0.70;;
55069;SDS011;40967;52.070;8.596;2023-01-16T13:29:27;0.93;;;0.40;;
55069;SDS011;40967;52.070;8.596;2023-01-16T13:31:48;1.80;;;0.65;;
55069;SDS011;40967;52.070;8.596;2023-01-16T13:34:24;1.25;;;0.60;;
55069;SDS011;40967;52.070;8.596;2023-01-16T13:42:41;1.13;;;0.57;;
55069;SDS011;40967;52.070;8.596;2023-01-16T13:45:28;1.63;;;0.70;;
55069;SDS011;40967;52.070;8.596;2023-01-16T13:48:18;1.15;;;0.63;;
55069;SDS011;40967;52.070;8.596;2023-01-16T13:50:51;1.90;;;0.57;;
55069;SDS011;40967;52.070;8.596;2023-01-16T13:53:23;1.02;;;0.30;;
55069;SDS011;40967;52.070;8.596;2023-01-16T13:55:49;1.42;;;0.43;;
55069;SDS011;40967;52.070;8.596;2023-01-16T13:58:25;2.70;;;0.60;;
55069;SDS011;40967;52.070;8.596;2023-01-16T14:00:58;1.02;;;0.40;;
55069;SDS011;40967;52.070;8.596;2023-01-16T14:03:26;1.70;;;0.80;;
55069;SDS011;40967;52.070;8.596;2023-01-16T14:05:54;1.30;;;0.57;;
55069;SDS011;40967;52.070;8.596;2023-01-16T14:17:14;0.93;;;0.50;;
55069;SDS011;40967;52.070;8.596;2023-01-16T14:19:42;0.73;;;0.40;;
55069;SDS011;40967;52.070;8.596;2023-01-16T14:22:24;2.38;;;0.30;;
55069;SDS011;40967;52.070;8.596;2023-01-16T14:24:58;0.53;;;0.20;;
55069;SDS011;40967;52.070;8.596;2023-01-16T14:27:24;1.08;;;0.30;;
55069;SDS011;40967;52.070;8.596;2023-01-16T14:29:57;1.97;;;0.40;;
55069;SDS011;40967;52.070;8.596;2023-01-16T14:32:25;1.38;;;0.30;;
55069;SDS011;40967;52.070;8.596;2023-01-16T14:37:54;1.13;;;0.43;;
55069;SDS011;40967;52.070;8.596;2023-01-16T14:40:23;0.88;;;0.40;;
55069;SDS011;40967;52.070;8.596;2023-01-16T14:43:12;1.20;;;0.40;;
55069;SDS011;40967;52.070;8.596;2023-01-16T14:55:24;2.10;;;0.70;;
55069;SDS011;40967;52.070;8.596;2023-01-16T14:57:54;0.60;;;0.30;;
55069;SDS011;40967;52.070;8.596;2023-01-16T15:00:21;0.73;;;0.50;;
55069;SDS011;40967;52.070;8.596;2023-01-16T15:02:55;0.50;;;0.30;;
55069;SDS011;40967;52.070;8.596;2023-01-16T15:05:23;0.80;;;0.30;;
55069;SDS011;40967;52.070;8.596;2023-01-16T15:08:15;0.50;;;0.32;;
55069;SDS011;40967;52.070;8.596;2023-01-16T15:10:44;1.27;;;0.40;;
55069;SDS011;40967;52.070;8.596;2023-01-16T15:13:21;0.68;;;0.30;;
55069;SDS011;40967;52.070;8.596;2023-01-16T15:16:04;1.67;;;0.60;;
55069;SDS011;40967;52.070;8.596;2023-01-16T15:18:39;1.90;;;0.47;;
55069;SDS011;40967;52.070;8.596;2023-01-16T15:21:25;1.13;;;0.50;;
55069;SDS011;40967;52.070;8.596;2023-01-16T15:24:09;1.63;;;0.55;;
55069;SDS011;40967;52.070;8.596;2023-01-16T15:26:54;1.85;;;0.60;;
55069;SDS011;40967;52.070;8.596;2023-01-16T15:32:03;1.33;;;0.60;;
55069;SDS011;40967;52.070;8.596;2023-01-16T15:34:35;1.48;;;0.60;;
55069;SDS011;40967;52.070;8.596;2023-01-16T15:37:00;1.37;;;0.50;;
55069;SDS011;40967;52.070;8.596;2023-01-16T15:42:07;1.95;;;0.70;;
55069;SDS011;40967;52.070;8.596;2023-01-16T15:45:07;2.25;;;0.60;;
55069;SDS011;40967;52.070;8.596;2023-01-16T15:51:00;2.00;;;0.70;;
55069;SDS011;40967;52.070;8.596;2023-01-16T15:53:39;1.52;;;0.60;;
55069;SDS011;40967;52.070;8.596;2023-01-16T15:56:18;1.70;;;0.50;;
55069;SDS011;40967;52.070;8.596;2023-01-16T15:58:47;0.98;;;0.45;;
55069;SDS011;40967;52.070;8.596;2023-01-16T16:01:13;1.85;;;0.73;;
55069;SDS011;40967;52.070;8.596;2023-01-16T16:03:44;1.83;;;0.60;;
55069;SDS011;40967;52.070;8.596;2023-01-16T16:06:13;2.70;;;1.27;;
55069;SDS011;40967;52.070;8.596;2023-01-16T16:08:47;2.47;;;1.13;;
55069;SDS011;40967;52.070;8.596;2023-01-16T16:11:18;2.60;;;0.93;;
55069;SDS011;40967;52.070;8.596;2023-01-16T16:28:16;1.67;;;0.77;;
55069;SDS011;40967;52.070;8.596;2023-01-16T16:33:42;1.90;;;0.80;;
55069;SDS011;40967;52.070;8.596;2023-01-16T16:36:17;1.67;;;0.80;;
55069;SDS011;40967;52.070;8.596;2023-01-16T16:38:45;1.98;;;0.68;;
55069;SDS011;40967;52.070;8.596;2023-01-16T16:43:42;2.00;;;0.80;;
55069;SDS011;40967;52.070;8.596;2023-01-16T16:48:48;1.58;;;0.70;;
55069;SDS011;40967;52.070;8.596;2023-01-16T16:51:21;1.85;;;0.90;;
55069;SDS011;40967;52.070;8.596;2023-01-16T16:56:33;1.23;;;0.50;;
55069;SDS011;40967;52.070;8.596;2023-01-16T16:59:01;2.20;;;0.65;;
55069;SDS011;40967;52.070;8.596;2023-01-16T17:01:26;1.17;;;0.60;;
55069;SDS011;40967;52.070;8.596;2023-01-16T17:03:56;1.23;;;0.60;;
55069;SDS011;40967;52.070;8.596;2023-01-16T17:06:32;1.30;;;0.70;;
55069;SDS011;40967;52.070;8.596;2023-01-16T17:08:59;1.17;;;0.60;;
55069;SDS011;40967;52.070;8.596;2023-01-16T17:11:25;1.37;;;0.70;;
55069;SDS011;40967;52.070;8.596;2023-01-16T17:13:51;1.90;;;0.70;;
55069;SDS011;40967;52.070;8.596;2023-01-16T17:18:44;2.05;;;0.93;;
55069;SDS011;40967;52.070;8.596;2023-01-16T17:21:12;1.95;;;0.90;;
55069;SDS011;40967;52.070;8.596;2023-01-16T17:23:40;2.05;;;0.88;;
55069;SDS011;40967;52.070;8.596;2023-01-16T17:26:06;1.98;;;0.68;;
55069;SDS011;40967;52.070;8.596;2023-01-16T17:28:33;1.97;;;1.00;;
55069;SDS011;40967;52.070;8.596;2023-01-16T17:30:59;2.10;;;0.77;;
55069;SDS011;40967;52.070;8.596;2023-01-16T17:33:24;1.80;;;0.80;;
55069;SDS011;40967;52.070;8.596;2023-01-16T17:35:52;2.58;;;0.68;;
55069;SDS011;40967;52.070;8.596;2023-01-16T17:38:36;1.25;;;0.70;;
55069;SDS011;40967;52.070;8.596;2023-01-16T17:41:03;2.10;;;0.98;;
55069;SDS011;40967;52.070;8.596;2023-01-16T17:43:30;1.73;;;0.75;;
55069;SDS011;40967;52.070;8.596;2023-01-16T17:46:14;1.40;;;0.73;;
55069;SDS011;40967;52.070;8.596;2023-01-16T17:48:41;2.47;;;1.10;;
55069;SDS011;40967;52.070;8.596;2023-01-16T17:51:07;1.50;;;0.60;;
55069;SDS011;40967;52.070;8.596;2023-01-16T17:53:33;1.60;;;0.70;;
55069;SDS011;40967;52.070;8.596;2023-01-16T17:56:00;2.17;;;0.90;;
55069;SDS011;40967;52.070;8.596;2023-01-16T17:58:28;1.90;;;0.70;;
55069;SDS011;40967;52.070;8.596;2023-01-16T18:01:01;2.88;;;0.75;;
55069;SDS011;40967;52.070;8.596;2023-01-16T18:03:28;1.55;;;0.65;;
55069;SDS011;40967;52.070;8.596;2023-01-16T18:05:58;1.88;;;0.63;;
55069;SDS011;40967;52.070;8.596;2023-01-16T18:08:33;1.27;;;0.57;;
55069;SDS011;40967;52.070;8.596;2023-01-16T18:10:59;1.80;;;0.70;;